KDKR

Houston County Airport

Crockett, Texas, USA
METAR KDKR 220035Z AUTO 01009G15KT 10SM OVC005 08/07 A3020 RMK AO2 LTG DSNT ALQDS
Observed Flight Rules
Feb-22 @ 00:35 UTC (4 hours ago) Instrument Flight Rules
Wind Visibility Clouds
10° at 9 knots
 Gusting to 15 knots
10 miles
  • Overcast at 500' AGL
Temperatures Readings
Current 8°C / 46°F
Dewpoint 7°C / 45°F
Humidity 93%
Altimeter 30.2" Hg
Pressure 1023 hPa
Elevation 106
METAR KDKR 220035Z AUTO 01009G15KT 10SM OVC005 08/07 A3020 RMK AO2 LTG DSNT ALQDS
Observed Flight Rules
Feb-22 @ 00:35 UTC
(4 hours ago)
IFR
Wind Visibility
10° at 9 knots
 Gusting to 15 knots
10 miles
Clouds
  • Overcast at 500' AGL
Temperature Dewpoint
8°C / 46°F 7°C / 45°F
Humidity Altimeter Pressure
93% 30.2" Hg 1023 hPa